createdAt,value
2022-08-27T00:01:22.287Z,32.03
2022-08-27T00:03:51.256Z,28.55
2022-08-27T00:06:19.801Z,30.58
2022-08-27T00:08:47.725Z,28.85
2022-08-27T00:11:15.682Z,27.30
2022-08-27T00:13:43.312Z,30.33
2022-08-27T00:16:12.061Z,25.63
2022-08-27T00:18:40.288Z,29.02
2022-08-27T00:21:09.101Z,27.73
2022-08-27T00:23:36.633Z,29.23
2022-08-27T00:26:04.905Z,28.88
2022-08-27T00:28:32.644Z,27.33
2022-08-27T00:31:00.417Z,29.05
2022-08-27T00:33:30.586Z,26.92
2022-08-27T00:35:58.105Z,25.75
2022-08-27T00:38:26.893Z,30.25
2022-08-27T00:40:55.292Z,32.08
2022-08-27T00:43:23.988Z,28.70
2022-08-27T00:45:53.294Z,30.00
2022-08-27T00:48:21.513Z,32.28
2022-08-27T00:50:51.934Z,30.77
2022-08-27T00:55:51.785Z,30.70
2022-08-27T00:58:22.756Z,28.98
2022-08-27T01:00:50.348Z,25.75
2022-08-27T01:03:18.054Z,29.95
2022-08-27T01:05:46.490Z,28.85
2022-08-27T01:08:15.213Z,29.35
2022-08-27T01:10:43.088Z,25.25
2022-08-27T01:13:14.121Z,23.98
2022-08-27T01:15:42.542Z,29.27
2022-08-27T01:18:13.307Z,26.83
2022-08-27T01:20:43.764Z,26.77
2022-08-27T01:25:42.040Z,25.98
2022-08-27T01:28:09.977Z,29.70
2022-08-27T01:30:37.821Z,28.38
2022-08-27T01:33:09.169Z,28.00
2022-08-27T01:35:40.152Z,27.33
2022-08-27T01:38:12.036Z,26.35
2022-08-27T01:40:48.093Z,32.50
2022-08-27T01:43:15.544Z,33.08
2022-08-27T01:45:45.969Z,29.42
2022-08-27T01:48:13.436Z,35.72
2022-08-27T01:50:41.425Z,33.90
2022-08-27T01:53:11.707Z,32.33
2022-08-27T01:55:39.941Z,39.05
2022-08-27T01:58:15.153Z,35.22
2022-08-27T02:00:44.213Z,36.55
2022-08-27T02:03:12.125Z,35.63
2022-08-27T02:05:44.661Z,43.78
2022-08-27T02:08:12.957Z,38.50
2022-08-27T02:10:41.165Z,39.80
2022-08-27T02:13:09.457Z,40.03
2022-08-27T02:15:38.537Z,38.63
2022-08-27T02:18:06.607Z,36.55
2022-08-27T02:20:34.681Z,42.55
2022-08-27T02:23:02.993Z,35.83
2022-08-27T02:25:30.492Z,36.42
2022-08-27T02:28:00.321Z,37.15
2022-08-27T02:30:28.904Z,33.47
2022-08-27T02:32:57.685Z,32.35
2022-08-27T02:35:25.467Z,32.75
2022-08-27T02:37:53.488Z,35.10
2022-08-27T02:40:21.864Z,35.75
2022-08-27T02:42:49.833Z,38.10
2022-08-27T02:45:17.893Z,40.47
2022-08-27T02:47:45.773Z,43.08
2022-08-27T02:50:14.846Z,41.20
2022-08-27T02:52:42.444Z,45.83
2022-08-27T02:55:10.235Z,42.08
2022-08-27T02:57:37.820Z,45.58
2022-08-27T03:00:06.375Z,47.38
2022-08-27T03:02:33.955Z,46.05
2022-08-27T03:05:01.560Z,41.60
2022-08-27T03:07:30.380Z,50.45
2022-08-27T03:09:57.809Z,48.28
2022-08-27T03:12:25.382Z,50.03
2022-08-27T03:14:52.904Z,46.28
2022-08-27T03:17:37.815Z,48.08
2022-08-27T03:20:06.789Z,54.65
2022-08-27T03:22:35.637Z,48.53
2022-08-27T03:25:03.176Z,50.17
2022-08-27T03:27:30.653Z,48.30
2022-08-27T03:30:03.121Z,48.85
2022-08-27T03:32:31.313Z,50.17
2022-08-27T03:34:59.397Z,51.95
2022-08-27T03:37:26.970Z,46.20
2022-08-27T03:39:56.088Z,47.78
2022-08-27T03:42:23.668Z,51.58
2022-08-27T03:44:51.960Z,58.00
2022-08-27T03:47:19.737Z,54.67
2022-08-27T03:49:47.178Z,61.13
2022-08-27T03:52:14.928Z,58.78
2022-08-27T03:54:42.547Z,58.03
2022-08-27T03:57:11.496Z,54.15
2022-08-27T03:59:39.001Z,53.60
2022-08-27T04:02:06.483Z,57.60
2022-08-27T04:04:34.037Z,58.67
2022-08-27T04:07:01.657Z,57.92
2022-08-27T04:09:29.160Z,69.53
2022-08-27T04:11:56.763Z,61.08
2022-08-27T04:14:26.835Z,59.40
2022-08-27T04:19:26.929Z,74.22
2022-08-27T04:21:55.057Z,69.05
2022-08-27T04:24:22.906Z,62.53
2022-08-27T04:26:50.389Z,71.90
2022-08-27T04:29:17.862Z,67.05
2022-08-27T04:31:46.701Z,62.53
2022-08-27T04:34:14.165Z,69.78
2022-08-27T04:36:41.712Z,67.97
2022-08-27T04:39:09.217Z,73.53
2022-08-27T04:41:36.868Z,78.53
2022-08-27T04:44:06.040Z,71.53
2022-08-27T04:46:35.198Z,71.60
2022-08-27T04:49:07.223Z,82.78
2022-08-27T04:51:39.371Z,75.55
2022-08-27T04:54:08.462Z,77.85
2022-08-27T04:56:36.480Z,78.65
2022-08-27T04:59:04.781Z,79.00
2022-08-27T05:01:32.333Z,78.93
2022-08-27T05:03:59.828Z,81.95
2022-08-27T05:06:28.704Z,74.65
2022-08-27T05:08:56.461Z,69.20
2022-08-27T05:11:26.269Z,68.15
2022-08-27T05:13:53.797Z,67.60
2022-08-27T05:16:23.139Z,58.13
2022-08-27T05:18:51.693Z,57.78
2022-08-27T05:21:20.692Z,62.55
2022-08-27T05:23:49.519Z,58.10
2022-08-27T05:26:17.010Z,55.83
2022-08-27T05:28:44.891Z,53.10
2022-08-27T05:31:13.528Z,56.58
2022-08-27T05:33:41.791Z,44.92
2022-08-27T05:36:14.988Z,46.10
2022-08-27T05:38:43.227Z,39.95
2022-08-27T05:41:12.892Z,41.28
2022-08-27T05:43:41.369Z,41.92
2022-08-27T05:46:10.019Z,36.65
2022-08-27T05:48:37.832Z,34.88
2022-08-27T05:51:09.286Z,35.55
2022-08-27T05:53:36.804Z,32.83
2022-08-27T05:56:04.521Z,30.25
2022-08-27T05:58:50.829Z,33.22
2022-08-27T06:01:21.746Z,36.50
2022-08-27T06:03:49.189Z,34.03
2022-08-27T06:06:16.664Z,33.72
2022-08-27T06:08:44.392Z,34.60
2022-08-27T06:11:12.053Z,33.17
2022-08-27T06:13:41.422Z,33.58
2022-08-27T06:16:14.088Z,33.17
2022-08-27T06:21:09.546Z,34.28
2022-08-27T06:23:37.366Z,33.58
2022-08-27T06:26:06.972Z,33.53
2022-08-27T06:28:35.429Z,34.63
2022-08-27T06:31:05.496Z,31.33
2022-08-27T06:33:33.281Z,32.95
2022-08-27T06:36:01.232Z,32.80
2022-08-27T06:38:28.750Z,27.23
2022-08-27T06:40:57.192Z,27.50
2022-08-27T06:43:25.274Z,26.00
2022-08-27T06:45:52.888Z,25.85
2022-08-27T06:48:22.813Z,27.00
2022-08-27T06:50:50.323Z,24.55
2022-08-27T06:53:17.780Z,23.50
2022-08-27T06:55:51.751Z,22.95
2022-08-27T06:58:19.713Z,23.67
2022-08-27T07:00:49.005Z,19.40
2022-08-27T07:03:16.614Z,19.48
2022-08-27T07:05:45.470Z,20.15
2022-08-27T07:08:13.098Z,18.70
2022-08-27T07:10:40.707Z,17.55
2022-08-27T07:13:08.164Z,17.27
2022-08-27T07:15:39.004Z,16.95
2022-08-27T07:18:06.460Z,18.63
2022-08-27T07:20:34.224Z,17.33
2022-08-27T07:23:03.043Z,15.63
2022-08-27T07:25:32.189Z,21.02
2022-08-27T07:28:01.004Z,21.55
2022-08-27T07:30:28.947Z,19.25
2022-08-27T07:32:56.493Z,18.30
2022-08-27T07:35:23.990Z,21.17
2022-08-27T07:37:51.444Z,23.10
2022-08-27T07:40:20.358Z,23.35
2022-08-27T07:43:05.149Z,20.75
2022-08-27T07:45:32.785Z,20.33
2022-08-27T07:48:00.297Z,18.05
2022-08-27T07:50:27.778Z,19.13
2022-08-27T07:52:55.282Z,17.67
2022-08-27T07:55:24.055Z,17.92
2022-08-27T07:57:52.617Z,19.95
2022-08-27T08:00:21.548Z,17.88
2022-08-27T08:02:49.575Z,19.88
2022-08-27T08:05:17.281Z,14.38
2022-08-27T08:07:44.751Z,15.95
2022-08-27T08:10:12.365Z,15.75
2022-08-27T08:12:41.419Z,12.35
2022-08-27T08:15:10.864Z,12.07
2022-08-27T08:17:40.375Z,11.75
2022-08-27T08:20:21.890Z,11.73
2022-08-27T08:22:54.782Z,8.45
2022-08-27T08:25:22.277Z,11.38
2022-08-27T08:27:51.132Z,9.80
2022-08-27T08:30:18.719Z,10.73
2022-08-27T08:32:46.240Z,11.57
2022-08-27T08:35:13.763Z,9.82
2022-08-27T08:37:43.278Z,11.10
2022-08-27T08:40:11.972Z,15.00
2022-08-27T08:42:42.584Z,12.98
2022-08-27T08:45:21.946Z,15.63
2022-08-27T08:47:51.757Z,11.10
2022-08-27T08:50:22.097Z,12.18
2022-08-27T08:52:51.594Z,11.82
2022-08-27T08:55:24.855Z,10.68
2022-08-27T08:57:58.830Z,11.80
2022-08-27T09:00:27.908Z,11.07
2022-08-27T09:02:55.962Z,9.05
2022-08-27T09:05:27.524Z,9.10
2022-08-27T09:08:15.358Z,10.07
2022-08-27T09:10:50.120Z,9.80
2022-08-27T09:13:22.355Z,10.32
2022-08-27T09:15:59.356Z,8.38
2022-08-27T09:18:27.959Z,11.75
2022-08-27T09:20:58.960Z,9.98
2022-08-27T09:23:33.721Z,10.63
2022-08-27T09:26:01.196Z,9.02
2022-08-27T09:28:47.583Z,12.18
2022-08-27T09:31:18.726Z,8.45
2022-08-27T09:33:56.727Z,10.40
2022-08-27T09:36:24.905Z,9.85
2022-08-27T09:38:57.849Z,10.30
2022-08-27T09:41:27.959Z,13.05
2022-08-27T09:43:59.307Z,13.80
2022-08-27T09:46:28.911Z,10.35
2022-08-27T09:48:56.787Z,8.00
2022-08-27T09:51:26.973Z,8.15
2022-08-27T09:53:55.865Z,8.85
2022-08-27T09:56:25.393Z,7.82
2022-08-27T09:58:54.871Z,7.38
2022-08-27T10:01:23.477Z,16.75
2022-08-27T10:04:03.333Z,10.85
2022-08-27T10:06:31.895Z,11.55
2022-08-27T10:09:06.932Z,11.43
2022-08-27T10:11:37.045Z,10.10
2022-08-27T10:14:07.326Z,11.38
2022-08-27T10:19:08.535Z,12.30
2022-08-27T10:21:40.387Z,8.85
2022-08-27T10:24:13.299Z,8.43
2022-08-27T10:26:42.526Z,10.73
2022-08-27T10:29:13.269Z,7.93
2022-08-27T10:31:45.651Z,7.95
2022-08-27T10:34:21.057Z,7.70
2022-08-27T10:36:52.236Z,11.88
2022-08-27T10:39:23.911Z,9.93
2022-08-27T10:41:54.809Z,9.10
2022-08-27T10:44:36.826Z,12.38
2022-08-27T10:47:11.089Z,10.48
2022-08-27T10:49:44.065Z,12.23
2022-08-27T10:52:14.941Z,10.40
2022-08-27T10:54:45.000Z,9.65
2022-08-27T10:57:35.438Z,8.50
2022-08-27T11:00:08.603Z,8.70
2022-08-27T11:02:38.503Z,8.90
2022-08-27T11:05:17.986Z,8.10
2022-08-27T11:07:47.477Z,9.13
2022-08-27T11:10:20.858Z,7.10
2022-08-27T11:12:50.950Z,10.98
2022-08-27T11:15:20.385Z,6.85
2022-08-27T11:17:51.507Z,7.15
2022-08-27T11:20:23.302Z,7.80
2022-08-27T11:22:54.417Z,8.45
2022-08-27T11:25:30.273Z,6.50
2022-08-27T11:27:58.733Z,6.18
2022-08-27T11:30:29.014Z,6.07
2022-08-27T11:33:02.417Z,6.53
2022-08-27T11:35:35.354Z,7.28
2022-08-27T11:38:30.509Z,6.70
2022-08-27T11:41:05.270Z,6.65
2022-08-27T11:43:34.837Z,6.40
2022-08-27T11:46:03.259Z,7.28
2022-08-27T11:48:32.224Z,8.57
2022-08-27T11:51:03.200Z,9.20
2022-08-27T11:53:32.160Z,5.97
2022-08-27T11:56:10.494Z,7.05
2022-08-27T11:58:53.337Z,6.47
2022-08-27T12:01:26.069Z,5.85
2022-08-27T12:04:01.433Z,5.65
2022-08-27T12:06:40.912Z,7.07
2022-08-27T12:09:15.366Z,5.95
2022-08-27T12:11:46.104Z,6.75
2022-08-27T12:14:21.408Z,6.72
2022-08-27T12:16:53.934Z,6.90
2022-08-27T12:19:30.072Z,5.30
2022-08-27T12:22:06.482Z,9.00
2022-08-27T12:24:45.438Z,6.80
2022-08-27T12:27:18.124Z,6.47
2022-08-27T12:29:49.252Z,5.38
2022-08-27T12:32:24.863Z,6.10
2022-08-27T12:34:59.130Z,6.40
2022-08-27T12:37:30.675Z,7.63
2022-08-27T12:40:00.685Z,6.38
2022-08-27T12:42:29.152Z,5.50
2022-08-27T12:44:57.266Z,6.25
2022-08-27T12:47:25.063Z,5.72
2022-08-27T12:49:55.930Z,7.65
2022-08-27T12:52:37.159Z,5.25
2022-08-27T12:55:10.894Z,5.75
2022-08-27T12:57:43.797Z,8.23
2022-08-27T13:00:15.102Z,5.40
2022-08-27T13:02:53.304Z,6.07
2022-08-27T13:05:21.490Z,6.20
2022-08-27T13:07:52.100Z,5.28
2022-08-27T13:10:22.477Z,6.88
2022-08-27T13:13:00.490Z,6.57
2022-08-27T13:15:27.980Z,6.22
2022-08-27T13:17:55.409Z,6.80
2022-08-27T13:20:24.659Z,5.43
2022-08-27T13:22:54.261Z,8.63
2022-08-27T13:25:26.537Z,5.60
2022-08-27T13:27:55.578Z,6.82
2022-08-27T13:30:35.817Z,5.05
2022-08-27T13:33:05.123Z,6.07
2022-08-27T13:35:32.813Z,7.30
2022-08-27T13:38:03.048Z,5.95
2022-08-27T13:40:32.012Z,6.38
2022-08-27T13:43:04.257Z,7.93
2022-08-27T13:45:36.736Z,8.93
2022-08-27T13:48:06.028Z,7.05
2022-08-27T13:50:34.195Z,5.65
2022-08-27T13:53:23.208Z,6.78
2022-08-27T13:55:50.703Z,5.93
2022-08-27T13:58:20.488Z,7.72
2022-08-27T14:00:47.989Z,7.40
2022-08-27T14:03:31.251Z,8.52
2022-08-27T14:05:58.936Z,6.93
2022-08-27T14:08:30.877Z,6.72
2022-08-27T14:11:02.933Z,8.23
2022-08-27T14:13:31.479Z,7.28
2022-08-27T14:15:59.755Z,8.18
2022-08-27T14:18:47.969Z,8.77
2022-08-27T14:21:15.823Z,6.07
2022-08-27T14:23:44.772Z,9.30
2022-08-27T14:26:14.080Z,7.85
2022-08-27T14:28:42.005Z,10.93
2022-08-27T14:31:09.528Z,7.43
2022-08-27T14:33:37.004Z,8.77
2022-08-27T14:36:04.865Z,7.55
2022-08-27T14:38:33.853Z,9.48
2022-08-27T14:41:02.677Z,6.15
2022-08-27T14:43:34.854Z,5.72
2022-08-27T14:46:03.115Z,8.82
2022-08-27T14:48:33.223Z,7.57
2022-08-27T14:51:02.270Z,7.40
2022-08-27T14:53:30.066Z,7.20
2022-08-27T14:55:58.966Z,6.20
2022-08-27T14:58:28.303Z,7.20
2022-08-27T15:00:56.508Z,6.07
2022-08-27T15:03:25.416Z,9.13
2022-08-27T15:05:54.777Z,8.25
2022-08-27T15:08:27.412Z,8.68
2022-08-27T15:10:56.816Z,6.80
2022-08-27T15:13:24.544Z,10.85
2022-08-27T15:15:53.349Z,12.77
2022-08-27T15:18:20.865Z,7.95
2022-08-27T15:20:48.516Z,11.23
2022-08-27T15:23:16.739Z,10.25
2022-08-27T15:25:46.434Z,8.80
2022-08-27T15:28:13.965Z,12.00
2022-08-27T15:30:41.433Z,10.88
2022-08-27T15:33:10.318Z,11.68
2022-08-27T15:35:37.825Z,9.27
2022-08-27T15:38:05.446Z,10.98
2022-08-27T15:40:35.541Z,12.27
2022-08-27T15:43:05.241Z,10.68
2022-08-27T15:45:32.878Z,10.25
2022-08-27T15:48:00.864Z,9.07
2022-08-27T15:50:31.094Z,8.13
2022-08-27T15:55:28.571Z,8.52
2022-08-27T15:57:56.390Z,10.52
2022-08-27T16:00:24.730Z,11.02
2022-08-27T16:02:52.568Z,7.78
2022-08-27T16:05:20.163Z,7.88
2022-08-27T16:07:49.067Z,8.93
2022-08-27T16:10:16.828Z,10.60
2022-08-27T16:12:44.517Z,10.80
2022-08-27T16:15:12.359Z,10.10
2022-08-27T16:17:40.079Z,13.93
2022-08-27T16:20:08.478Z,11.50
2022-08-27T16:22:36.199Z,7.45
2022-08-27T16:25:05.893Z,9.10
2022-08-27T16:27:33.348Z,7.63
2022-08-27T16:30:00.866Z,7.63
2022-08-27T16:32:28.881Z,6.43
2022-08-27T16:34:56.855Z,8.70
2022-08-27T16:37:24.390Z,8.93
2022-08-27T16:39:51.929Z,7.18
2022-08-27T16:42:20.826Z,6.95
2022-08-27T16:44:48.311Z,7.22
2022-08-27T16:47:15.748Z,6.35
2022-08-27T16:50:00.864Z,8.85
2022-08-27T16:52:28.571Z,7.97
2022-08-27T16:54:56.848Z,7.03
2022-08-27T16:57:25.590Z,6.93
2022-08-27T16:59:54.948Z,8.15
2022-08-27T17:02:30.161Z,6.28
2022-08-27T17:05:17.289Z,6.05
2022-08-27T17:07:48.325Z,8.20
2022-08-27T17:10:17.180Z,7.38
2022-08-27T17:12:47.913Z,5.47
2022-08-27T17:15:16.082Z,6.35
2022-08-27T17:17:43.499Z,5.32
2022-08-27T17:20:11.310Z,9.98
2022-08-27T17:22:38.895Z,5.32
2022-08-27T17:25:07.975Z,6.75
2022-08-27T17:27:35.427Z,7.35
2022-08-27T17:30:04.610Z,5.68
2022-08-27T17:32:33.280Z,6.88
2022-08-27T17:35:05.643Z,6.65
2022-08-27T17:37:33.659Z,6.38
2022-08-27T17:40:01.215Z,6.78
2022-08-27T17:42:29.873Z,6.88
2022-08-27T17:44:57.684Z,5.20
2022-08-27T17:47:26.876Z,6.97
2022-08-27T17:49:54.683Z,8.25
2022-08-27T17:52:22.594Z,7.20
2022-08-27T17:54:51.911Z,9.43
2022-08-27T17:57:20.888Z,11.48
2022-08-27T17:59:48.643Z,8.13
2022-08-27T18:02:20.149Z,6.70
2022-08-27T18:04:50.128Z,10.60
2022-08-27T18:07:17.757Z,8.90
2022-08-27T18:09:45.246Z,5.28
2022-08-27T18:12:13.698Z,7.50
2022-08-27T18:14:41.219Z,8.57
2022-08-27T18:17:08.731Z,6.35
2022-08-27T18:19:37.823Z,8.05
2022-08-27T18:22:07.324Z,5.85
2022-08-27T18:24:34.711Z,7.90
2022-08-27T18:27:02.325Z,7.18
2022-08-27T18:29:29.840Z,6.72
2022-08-27T18:31:57.244Z,8.05
2022-08-27T18:34:24.696Z,9.68
2022-08-27T18:36:52.292Z,5.55
2022-08-27T18:39:21.065Z,5.68
2022-08-27T18:41:53.453Z,9.20
2022-08-27T18:44:21.082Z,6.65
2022-08-27T18:46:48.529Z,5.70
2022-08-27T18:49:15.998Z,5.30
2022-08-27T18:51:46.986Z,5.85
2022-08-27T18:54:16.897Z,6.82
2022-08-27T18:56:45.690Z,5.57
2022-08-27T18:59:13.693Z,5.18
2022-08-27T19:01:41.410Z,7.10
2022-08-27T19:04:10.507Z,6.18
2022-08-27T19:06:38.000Z,5.47
2022-08-27T19:09:05.516Z,7.22
2022-08-27T19:11:33.184Z,6.95
2022-08-27T19:14:01.950Z,5.28
2022-08-27T19:16:37.381Z,6.10
2022-08-27T19:19:05.044Z,5.20
2022-08-27T19:21:32.661Z,9.45
2022-08-27T19:24:00.135Z,7.28
2022-08-27T19:26:27.598Z,4.15
2022-08-27T19:28:55.020Z,5.10
2022-08-27T19:31:24.075Z,5.57
2022-08-27T19:33:52.103Z,9.20
2022-08-27T19:36:20.523Z,5.45
2022-08-27T19:38:50.161Z,4.90
2022-08-27T19:41:17.986Z,4.70
2022-08-27T19:43:46.140Z,6.53
2022-08-27T19:46:14.309Z,3.72
2022-08-27T19:48:43.156Z,3.58
2022-08-27T19:51:10.964Z,6.68
2022-08-27T19:53:38.428Z,5.00
2022-08-27T19:56:06.208Z,4.00
2022-08-27T19:58:33.635Z,5.97
2022-08-27T20:01:01.204Z,7.32
2022-08-27T20:03:28.716Z,5.57
2022-08-27T20:05:57.553Z,5.13
2022-08-27T20:08:24.988Z,7.00
2022-08-27T20:10:52.566Z,6.88
2022-08-27T20:13:20.011Z,5.68
2022-08-27T20:15:48.141Z,8.00
2022-08-27T20:18:15.625Z,6.95
2022-08-27T20:20:43.318Z,6.20
2022-08-27T20:23:12.122Z,11.20
2022-08-27T20:25:39.623Z,6.85
2022-08-27T20:28:28.365Z,10.07
2022-08-27T20:30:56.556Z,9.38
2022-08-27T20:33:23.976Z,8.15
2022-08-27T20:35:51.408Z,11.30
2022-08-27T20:38:21.739Z,10.50
2022-08-27T20:40:49.188Z,7.28
2022-08-27T20:43:16.673Z,8.70
2022-08-27T20:45:44.587Z,10.52
2022-08-27T20:48:12.663Z,8.40
2022-08-27T20:50:40.239Z,11.02
2022-08-27T20:53:07.678Z,13.48
2022-08-27T20:55:36.428Z,10.20
2022-08-27T20:58:21.126Z,11.38
2022-08-27T21:00:52.273Z,10.45
2022-08-27T21:03:19.749Z,11.40
2022-08-27T21:05:48.509Z,12.13
2022-08-27T21:08:17.494Z,9.68
2022-08-27T21:10:47.245Z,11.32
2022-08-27T21:13:15.170Z,11.05
2022-08-27T21:15:42.683Z,18.08
2022-08-27T21:18:10.918Z,13.15
2022-08-27T21:20:38.694Z,9.40
2022-08-27T21:23:06.107Z,9.73
2022-08-27T21:25:33.567Z,10.10
2022-08-27T21:28:04.310Z,10.63
2022-08-27T21:30:31.824Z,10.82
2022-08-27T21:32:59.371Z,8.85
2022-08-27T21:35:28.503Z,13.00
2022-08-27T21:37:56.701Z,11.50
2022-08-27T21:40:25.266Z,12.07
2022-08-27T21:42:52.817Z,9.43
2022-08-27T21:45:21.954Z,10.55
2022-08-27T21:47:51.671Z,10.63
2022-08-27T21:50:19.448Z,10.57
2022-08-27T21:52:47.275Z,10.70
2022-08-27T21:55:14.919Z,13.25
2022-08-27T21:57:42.327Z,13.63
2022-08-27T22:00:16.470Z,13.57
2022-08-27T22:02:45.353Z,15.00
2022-08-27T22:05:12.862Z,14.10
2022-08-27T22:07:40.295Z,9.32
2022-08-27T22:10:08.246Z,9.63
2022-08-27T22:12:35.871Z,13.18
2022-08-27T22:15:04.126Z,13.57
2022-08-27T22:17:31.594Z,12.98
2022-08-27T22:20:00.371Z,12.38
2022-08-27T22:22:30.751Z,13.40
2022-08-27T22:24:58.822Z,14.55
2022-08-27T22:27:26.620Z,14.20
2022-08-27T22:29:54.082Z,11.65
2022-08-27T22:32:21.537Z,16.90
2022-08-27T22:34:49.077Z,17.02
2022-08-27T22:37:17.894Z,15.40
2022-08-27T22:39:45.355Z,14.27
2022-08-27T22:42:13.918Z,14.95
2022-08-27T22:44:45.263Z,14.35
2022-08-27T22:47:14.821Z,12.68
2022-08-27T22:49:42.250Z,16.00
2022-08-27T22:52:09.770Z,14.60
2022-08-27T22:54:38.551Z,21.25
2022-08-27T22:57:06.218Z,17.23
2022-08-27T22:59:38.741Z,13.60
2022-08-27T23:02:08.344Z,15.70
2022-08-27T23:04:54.101Z,13.45
2022-08-27T23:07:22.768Z,14.70
2022-08-27T23:09:51.539Z,15.18
2022-08-27T23:12:19.777Z,17.92
2022-08-27T23:14:47.247Z,14.90
2022-08-27T23:17:16.070Z,15.23
2022-08-27T23:19:43.495Z,16.83
2022-08-27T23:22:10.931Z,21.95
2022-08-27T23:24:59.295Z,18.20
2022-08-27T23:27:30.232Z,17.95
2022-08-27T23:29:57.722Z,16.55
2022-08-27T23:32:25.299Z,16.35
2022-08-27T23:34:53.570Z,21.58
2022-08-27T23:37:21.086Z,15.90
2022-08-27T23:39:48.654Z,20.73
2022-08-27T23:42:18.456Z,21.17
2022-08-27T23:44:47.885Z,15.93
2022-08-27T23:47:15.579Z,18.52
2022-08-27T23:49:43.651Z,17.10
2022-08-27T23:52:11.725Z,26.33
2022-08-27T23:54:39.199Z,21.48
2022-08-27T23:57:06.823Z,19.65
2022-08-27T23:59:34.365Z,20.40
